sensor_id;sensor_type;location;lat;lon;timestamp;P1;durP1;ratioP1;P2;durP2;ratioP2
27684;SDS011;46113;50.130;8.526;2024-03-08T00:01:04;16.42;;;9.35;;
27684;SDS011;46113;50.130;8.526;2024-03-08T00:03:32;21.42;;;9.65;;
27684;SDS011;46113;50.130;8.526;2024-03-08T00:05:59;16.33;;;9.45;;
27684;SDS011;46113;50.130;8.526;2024-03-08T00:08:26;16.92;;;9.60;;
27684;SDS011;46113;50.130;8.526;2024-03-08T00:10:53;14.60;;;9.43;;
27684;SDS011;46113;50.130;8.526;2024-03-08T00:13:20;16.23;;;9.35;;
27684;SDS011;46113;50.130;8.526;2024-03-08T00:15:47;21.23;;;10.13;;
27684;SDS011;46113;50.130;8.526;2024-03-08T00:18:14;21.20;;;9.57;;
27684;SDS011;46113;50.130;8.526;2024-03-08T00:20:41;15.43;;;8.57;;
27684;SDS011;46113;50.130;8.526;2024-03-08T00:23:07;14.10;;;8.32;;
27684;SDS011;46113;50.130;8.526;2024-03-08T00:25:35;16.88;;;10.05;;
27684;SDS011;46113;50.130;8.526;2024-03-08T00:28:02;23.67;;;10.15;;
27684;SDS011;46113;50.130;8.526;2024-03-08T00:30:32;15.10;;;9.18;;
27684;SDS011;46113;50.130;8.526;2024-03-08T00:32:59;15.45;;;8.90;;
27684;SDS011;46113;50.130;8.526;2024-03-08T00:35:26;18.08;;;10.70;;
27684;SDS011;46113;50.130;8.526;2024-03-08T00:37:53;18.88;;;10.20;;
27684;SDS011;46113;50.130;8.526;2024-03-08T00:40:22;19.67;;;9.77;;
27684;SDS011;46113;50.130;8.526;2024-03-08T00:42:49;16.27;;;9.68;;
27684;SDS011;46113;50.130;8.526;2024-03-08T00:45:16;15.25;;;9.27;;
27684;SDS011;46113;50.130;8.526;2024-03-08T00:47:43;18.30;;;9.07;;
27684;SDS011;46113;50.130;8.526;2024-03-08T00:50:10;18.08;;;8.88;;
27684;SDS011;46113;50.130;8.526;2024-03-08T00:52:39;17.23;;;9.93;;
27684;SDS011;46113;50.130;8.526;2024-03-08T00:55:06;19.38;;;10.00;;
27684;SDS011;46113;50.130;8.526;2024-03-08T00:57:34;15.43;;;9.23;;
27684;SDS011;46113;50.130;8.526;2024-03-08T01:00:02;14.23;;;9.57;;
27684;SDS011;46113;50.130;8.526;2024-03-08T01:02:32;16.63;;;9.25;;
27684;SDS011;46113;50.130;8.526;2024-03-08T01:05:01;15.75;;;8.52;;
27684;SDS011;46113;50.130;8.526;2024-03-08T01:07:28;17.92;;;10.02;;
27684;SDS011;46113;50.130;8.526;2024-03-08T01:09:55;18.65;;;11.43;;
27684;SDS011;46113;50.130;8.526;2024-03-08T01:12:22;16.95;;;9.70;;
27684;SDS011;46113;50.130;8.526;2024-03-08T01:14:49;17.90;;;10.70;;
27684;SDS011;46113;50.130;8.526;2024-03-08T01:17:16;16.30;;;9.98;;
27684;SDS011;46113;50.130;8.526;2024-03-08T01:19:43;15.05;;;9.35;;
27684;SDS011;46113;50.130;8.526;2024-03-08T01:22:13;17.92;;;10.15;;
27684;SDS011;46113;50.130;8.526;2024-03-08T01:24:40;16.75;;;9.18;;
27684;SDS011;46113;50.130;8.526;2024-03-08T01:27:07;20.35;;;9.52;;
27684;SDS011;46113;50.130;8.526;2024-03-08T01:29:35;17.30;;;10.25;;
27684;SDS011;46113;50.130;8.526;2024-03-08T01:32:02;16.65;;;10.38;;
27684;SDS011;46113;50.130;8.526;2024-03-08T01:34:29;20.95;;;10.07;;
27684;SDS011;46113;50.130;8.526;2024-03-08T01:36:56;17.60;;;10.52;;
27684;SDS011;46113;50.130;8.526;2024-03-08T01:39:24;18.23;;;9.95;;
27684;SDS011;46113;50.130;8.526;2024-03-08T01:41:50;21.80;;;9.73;;
27684;SDS011;46113;50.130;8.526;2024-03-08T01:44:17;17.13;;;10.50;;
27684;SDS011;46113;50.130;8.526;2024-03-08T01:46:44;20.02;;;10.48;;
27684;SDS011;46113;50.130;8.526;2024-03-08T01:49:12;24.73;;;11.80;;
27684;SDS011;46113;50.130;8.526;2024-03-08T01:51:39;16.58;;;11.00;;
27684;SDS011;46113;50.130;8.526;2024-03-08T01:54:08;19.40;;;11.50;;
27684;SDS011;46113;50.130;8.526;2024-03-08T01:56:37;20.45;;;11.48;;
27684;SDS011;46113;50.130;8.526;2024-03-08T01:59:05;17.42;;;10.55;;
27684;SDS011;46113;50.130;8.526;2024-03-08T02:01:34;23.10;;;11.32;;
27684;SDS011;46113;50.130;8.526;2024-03-08T02:04:01;17.73;;;9.65;;
27684;SDS011;46113;50.130;8.526;2024-03-08T02:06:28;20.77;;;11.75;;
27684;SDS011;46113;50.130;8.526;2024-03-08T02:08:56;18.83;;;10.30;;
27684;SDS011;46113;50.130;8.526;2024-03-08T02:11:23;17.30;;;11.10;;
27684;SDS011;46113;50.130;8.526;2024-03-08T02:13:50;19.48;;;11.48;;
27684;SDS011;46113;50.130;8.526;2024-03-08T02:16:23;19.48;;;11.95;;
27684;SDS011;46113;50.130;8.526;2024-03-08T02:18:50;22.08;;;10.70;;
27684;SDS011;46113;50.130;8.526;2024-03-08T02:21:17;23.90;;;13.20;;
27684;SDS011;46113;50.130;8.526;2024-03-08T02:23:45;22.85;;;11.38;;
27684;SDS011;46113;50.130;8.526;2024-03-08T02:26:12;18.58;;;10.48;;
27684;SDS011;46113;50.130;8.526;2024-03-08T02:28:39;23.80;;;11.43;;
27684;SDS011;46113;50.130;8.526;2024-03-08T02:31:08;19.17;;;10.88;;
27684;SDS011;46113;50.130;8.526;2024-03-08T02:33:35;20.65;;;11.77;;
27684;SDS011;46113;50.130;8.526;2024-03-08T02:36:02;23.77;;;11.70;;
27684;SDS011;46113;50.130;8.526;2024-03-08T02:38:29;20.83;;;11.43;;
27684;SDS011;46113;50.130;8.526;2024-03-08T02:40:56;17.58;;;11.05;;
27684;SDS011;46113;50.130;8.526;2024-03-08T02:43:23;22.95;;;11.68;;
27684;SDS011;46113;50.130;8.526;2024-03-08T02:45:51;17.83;;;11.27;;
27684;SDS011;46113;50.130;8.526;2024-03-08T02:48:21;21.33;;;11.30;;
27684;SDS011;46113;50.130;8.526;2024-03-08T02:50:48;24.60;;;10.93;;
27684;SDS011;46113;50.130;8.526;2024-03-08T02:53:17;20.17;;;10.32;;
27684;SDS011;46113;50.130;8.526;2024-03-08T02:55:45;18.38;;;11.23;;
27684;SDS011;46113;50.130;8.526;2024-03-08T02:58:13;23.00;;;11.95;;
27684;SDS011;46113;50.130;8.526;2024-03-08T03:00:41;21.63;;;12.32;;
27684;SDS011;46113;50.130;8.526;2024-03-08T03:03:11;19.50;;;11.40;;
27684;SDS011;46113;50.130;8.526;2024-03-08T03:05:38;22.75;;;11.77;;
27684;SDS011;46113;50.130;8.526;2024-03-08T03:08:13;21.33;;;11.60;;
27684;SDS011;46113;50.130;8.526;2024-03-08T03:10:39;19.38;;;11.13;;
27684;SDS011;46113;50.130;8.526;2024-03-08T03:13:06;25.45;;;12.98;;
27684;SDS011;46113;50.130;8.526;2024-03-08T03:15:35;25.58;;;12.98;;
27684;SDS011;46113;50.130;8.526;2024-03-08T03:18:03;23.08;;;11.82;;
27684;SDS011;46113;50.130;8.526;2024-03-08T03:20:30;19.25;;;11.35;;
27684;SDS011;46113;50.130;8.526;2024-03-08T03:23:06;23.15;;;12.75;;
27684;SDS011;46113;50.130;8.526;2024-03-08T03:25:35;21.48;;;11.82;;
27684;SDS011;46113;50.130;8.526;2024-03-08T03:28:02;25.02;;;10.77;;
27684;SDS011;46113;50.130;8.526;2024-03-08T03:30:31;19.98;;;10.88;;
27684;SDS011;46113;50.130;8.526;2024-03-08T03:33:00;23.60;;;11.82;;
27684;SDS011;46113;50.130;8.526;2024-03-08T03:35:28;21.67;;;12.52;;
27684;SDS011;46113;50.130;8.526;2024-03-08T03:37:58;22.10;;;11.63;;
27684;SDS011;46113;50.130;8.526;2024-03-08T03:40:37;22.77;;;11.18;;
27684;SDS011;46113;50.130;8.526;2024-03-08T03:43:05;23.52;;;12.40;;
27684;SDS011;46113;50.130;8.526;2024-03-08T03:45:31;17.80;;;10.80;;
27684;SDS011;46113;50.130;8.526;2024-03-08T03:48:06;28.13;;;12.15;;
27684;SDS011;46113;50.130;8.526;2024-03-08T03:50:37;17.63;;;10.45;;
27684;SDS011;46113;50.130;8.526;2024-03-08T03:53:05;23.15;;;12.48;;
27684;SDS011;46113;50.130;8.526;2024-03-08T03:55:35;18.13;;;11.65;;
27684;SDS011;46113;50.130;8.526;2024-03-08T03:58:07;23.33;;;11.27;;
27684;SDS011;46113;50.130;8.526;2024-03-08T04:00:37;21.40;;;12.27;;
27684;SDS011;46113;50.130;8.526;2024-03-08T04:03:04;22.67;;;11.50;;
27684;SDS011;46113;50.130;8.526;2024-03-08T04:05:31;20.27;;;11.80;;
27684;SDS011;46113;50.130;8.526;2024-03-08T04:07:58;20.88;;;12.20;;
27684;SDS011;46113;50.130;8.526;2024-03-08T04:10:25;37.40;;;15.80;;
27684;SDS011;46113;50.130;8.526;2024-03-08T04:12:52;27.92;;;14.23;;
27684;SDS011;46113;50.130;8.526;2024-03-08T04:15:19;26.85;;;14.13;;
27684;SDS011;46113;50.130;8.526;2024-03-08T04:17:47;25.52;;;13.00;;
27684;SDS011;46113;50.130;8.526;2024-03-08T04:20:14;26.73;;;12.88;;
27684;SDS011;46113;50.130;8.526;2024-03-08T04:22:41;29.00;;;11.73;;
27684;SDS011;46113;50.130;8.526;2024-03-08T04:25:11;21.50;;;11.63;;
27684;SDS011;46113;50.130;8.526;2024-03-08T04:27:38;20.42;;;11.85;;
27684;SDS011;46113;50.130;8.526;2024-03-08T04:30:05;21.80;;;10.90;;
27684;SDS011;46113;50.130;8.526;2024-03-08T04:32:34;23.20;;;11.20;;
27684;SDS011;46113;50.130;8.526;2024-03-08T04:35:02;20.58;;;10.55;;
27684;SDS011;46113;50.130;8.526;2024-03-08T04:37:30;18.42;;;10.95;;
27684;SDS011;46113;50.130;8.526;2024-03-08T04:39:57;23.27;;;11.40;;
27684;SDS011;46113;50.130;8.526;2024-03-08T04:42:25;20.88;;;11.55;;
27684;SDS011;46113;50.130;8.526;2024-03-08T04:44:53;20.23;;;12.55;;
27684;SDS011;46113;50.130;8.526;2024-03-08T04:47:20;22.17;;;11.70;;
27684;SDS011;46113;50.130;8.526;2024-03-08T04:49:47;24.05;;;13.02;;
27684;SDS011;46113;50.130;8.526;2024-03-08T04:52:14;25.65;;;12.55;;
27684;SDS011;46113;50.130;8.526;2024-03-08T04:54:41;19.83;;;11.68;;
27684;SDS011;46113;50.130;8.526;2024-03-08T04:57:07;23.10;;;11.63;;
27684;SDS011;46113;50.130;8.526;2024-03-08T04:59:35;18.60;;;11.40;;
27684;SDS011;46113;50.130;8.526;2024-03-08T05:02:03;22.73;;;12.25;;
27684;SDS011;46113;50.130;8.526;2024-03-08T05:04:30;20.90;;;12.25;;
27684;SDS011;46113;50.130;8.526;2024-03-08T05:06:57;21.67;;;10.40;;
27684;SDS011;46113;50.130;8.526;2024-03-08T05:09:26;19.85;;;11.75;;
27684;SDS011;46113;50.130;8.526;2024-03-08T05:11:58;27.58;;;12.52;;
27684;SDS011;46113;50.130;8.526;2024-03-08T05:14:25;25.75;;;12.55;;
27684;SDS011;46113;50.130;8.526;2024-03-08T05:16:52;20.17;;;11.73;;
27684;SDS011;46113;50.130;8.526;2024-03-08T05:19:20;18.77;;;10.85;;
27684;SDS011;46113;50.130;8.526;2024-03-08T05:21:47;24.67;;;13.15;;
27684;SDS011;46113;50.130;8.526;2024-03-08T05:24:16;22.08;;;12.65;;
27684;SDS011;46113;50.130;8.526;2024-03-08T05:26:45;29.60;;;13.20;;
27684;SDS011;46113;50.130;8.526;2024-03-08T05:29:13;28.60;;;13.82;;
27684;SDS011;46113;50.130;8.526;2024-03-08T05:31:50;24.73;;;13.93;;
27684;SDS011;46113;50.130;8.526;2024-03-08T05:34:21;30.80;;;14.35;;
27684;SDS011;46113;50.130;8.526;2024-03-08T05:36:49;28.05;;;14.43;;
27684;SDS011;46113;50.130;8.526;2024-03-08T05:39:16;32.00;;;13.18;;
27684;SDS011;46113;50.130;8.526;2024-03-08T05:41:45;24.40;;;13.23;;
27684;SDS011;46113;50.130;8.526;2024-03-08T05:44:15;22.95;;;12.30;;
27684;SDS011;46113;50.130;8.526;2024-03-08T05:46:45;24.27;;;12.85;;
27684;SDS011;46113;50.130;8.526;2024-03-08T05:49:13;24.88;;;13.48;;
27684;SDS011;46113;50.130;8.526;2024-03-08T05:51:40;24.42;;;14.25;;
27684;SDS011;46113;50.130;8.526;2024-03-08T05:54:08;31.02;;;13.48;;
27684;SDS011;46113;50.130;8.526;2024-03-08T05:56:43;22.27;;;11.80;;
27684;SDS011;46113;50.130;8.526;2024-03-08T05:59:11;23.38;;;11.63;;
27684;SDS011;46113;50.130;8.526;2024-03-08T06:01:39;23.77;;;11.80;;
27684;SDS011;46113;50.130;8.526;2024-03-08T06:04:09;25.20;;;12.13;;
27684;SDS011;46113;50.130;8.526;2024-03-08T06:06:38;23.80;;;13.10;;
27684;SDS011;46113;50.130;8.526;2024-03-08T06:09:11;26.08;;;15.23;;
27684;SDS011;46113;50.130;8.526;2024-03-08T06:11:45;24.70;;;13.02;;
27684;SDS011;46113;50.130;8.526;2024-03-08T06:14:12;24.77;;;13.10;;
27684;SDS011;46113;50.130;8.526;2024-03-08T06:16:39;23.52;;;11.70;;
27684;SDS011;46113;50.130;8.526;2024-03-08T06:19:06;28.02;;;14.65;;
27684;SDS011;46113;50.130;8.526;2024-03-08T06:21:33;23.42;;;12.52;;
27684;SDS011;46113;50.130;8.526;2024-03-08T06:23:59;22.90;;;12.48;;
27684;SDS011;46113;50.130;8.526;2024-03-08T06:26:27;23.63;;;13.55;;
27684;SDS011;46113;50.130;8.526;2024-03-08T06:28:57;23.73;;;12.90;;
27684;SDS011;46113;50.130;8.526;2024-03-08T06:31:25;29.73;;;13.50;;
27684;SDS011;46113;50.130;8.526;2024-03-08T06:33:52;22.48;;;11.70;;
27684;SDS011;46113;50.130;8.526;2024-03-08T06:36:22;26.30;;;13.15;;
27684;SDS011;46113;50.130;8.526;2024-03-08T06:38:49;29.60;;;13.88;;
27684;SDS011;46113;50.130;8.526;2024-03-08T06:41:16;24.05;;;14.18;;
27684;SDS011;46113;50.130;8.526;2024-03-08T06:43:44;27.75;;;12.02;;
27684;SDS011;46113;50.130;8.526;2024-03-08T06:46:12;22.20;;;11.90;;
27684;SDS011;46113;50.130;8.526;2024-03-08T06:48:39;23.50;;;13.52;;
27684;SDS011;46113;50.130;8.526;2024-03-08T06:51:06;22.02;;;10.95;;
27684;SDS011;46113;50.130;8.526;2024-03-08T06:53:34;28.00;;;13.85;;
27684;SDS011;46113;50.130;8.526;2024-03-08T06:56:02;27.33;;;13.88;;
27684;SDS011;46113;50.130;8.526;2024-03-08T06:58:29;21.83;;;12.73;;
27684;SDS011;46113;50.130;8.526;2024-03-08T07:00:55;21.15;;;12.95;;
27684;SDS011;46113;50.130;8.526;2024-03-08T07:03:27;24.13;;;13.32;;
27684;SDS011;46113;50.130;8.526;2024-03-08T07:05:56;21.83;;;12.88;;
27684;SDS011;46113;50.130;8.526;2024-03-08T07:08:26;23.10;;;13.38;;
27684;SDS011;46113;50.130;8.526;2024-03-08T07:10:53;21.88;;;12.15;;
27684;SDS011;46113;50.130;8.526;2024-03-08T07:13:21;26.13;;;14.23;;
27684;SDS011;46113;50.130;8.526;2024-03-08T07:15:47;26.88;;;13.23;;
27684;SDS011;46113;50.130;8.526;2024-03-08T07:18:14;26.90;;;12.95;;
27684;SDS011;46113;50.130;8.526;2024-03-08T07:20:42;22.60;;;12.20;;
27684;SDS011;46113;50.130;8.526;2024-03-08T07:23:10;21.80;;;12.85;;
27684;SDS011;46113;50.130;8.526;2024-03-08T07:25:37;20.08;;;12.40;;
27684;SDS011;46113;50.130;8.526;2024-03-08T07:28:06;25.20;;;12.48;;
27684;SDS011;46113;50.130;8.526;2024-03-08T07:30:39;22.40;;;12.53;;
27684;SDS011;46113;50.130;8.526;2024-03-08T07:33:26;24.88;;;12.88;;
27684;SDS011;46113;50.130;8.526;2024-03-08T07:35:53;20.45;;;11.15;;
27684;SDS011;46113;50.130;8.526;2024-03-08T07:38:20;21.42;;;12.77;;
27684;SDS011;46113;50.130;8.526;2024-03-08T07:40:47;20.35;;;11.27;;
27684;SDS011;46113;50.130;8.526;2024-03-08T07:43:14;21.88;;;12.30;;
27684;SDS011;46113;50.130;8.526;2024-03-08T07:45:41;21.85;;;12.18;;
27684;SDS011;46113;50.130;8.526;2024-03-08T07:48:08;21.00;;;11.25;;
27684;SDS011;46113;50.130;8.526;2024-03-08T07:50:37;23.55;;;12.93;;
27684;SDS011;46113;50.130;8.526;2024-03-08T07:53:06;25.30;;;11.80;;
27684;SDS011;46113;50.130;8.526;2024-03-08T07:55:34;21.30;;;12.27;;
27684;SDS011;46113;50.130;8.526;2024-03-08T07:58:03;22.75;;;12.70;;
27684;SDS011;46113;50.130;8.526;2024-03-08T08:00:30;24.27;;;12.88;;
27684;SDS011;46113;50.130;8.526;2024-03-08T08:03:00;17.38;;;10.35;;
27684;SDS011;46113;50.130;8.526;2024-03-08T08:05:27;23.00;;;12.35;;
27684;SDS011;46113;50.130;8.526;2024-03-08T08:07:54;19.20;;;11.07;;
27684;SDS011;46113;50.130;8.526;2024-03-08T08:10:22;21.98;;;11.25;;
27684;SDS011;46113;50.130;8.526;2024-03-08T08:12:52;18.77;;;11.00;;
27684;SDS011;46113;50.130;8.526;2024-03-08T08:15:19;21.27;;;11.90;;
27684;SDS011;46113;50.130;8.526;2024-03-08T08:17:47;23.10;;;11.95;;
27684;SDS011;46113;50.130;8.526;2024-03-08T08:20:14;20.85;;;12.73;;
27684;SDS011;46113;50.130;8.526;2024-03-08T08:22:42;19.88;;;10.38;;
27684;SDS011;46113;50.130;8.526;2024-03-08T08:25:12;21.63;;;12.85;;
27684;SDS011;46113;50.130;8.526;2024-03-08T08:27:40;19.08;;;11.27;;
27684;SDS011;46113;50.130;8.526;2024-03-08T08:30:07;22.52;;;11.20;;
27684;SDS011;46113;50.130;8.526;2024-03-08T08:32:35;21.50;;;11.95;;
27684;SDS011;46113;50.130;8.526;2024-03-08T08:35:09;21.70;;;11.85;;
27684;SDS011;46113;50.130;8.526;2024-03-08T08:37:39;20.75;;;10.90;;
27684;SDS011;46113;50.130;8.526;2024-03-08T08:40:07;20.77;;;10.77;;
27684;SDS011;46113;50.130;8.526;2024-03-08T08:42:42;17.67;;;10.23;;
27684;SDS011;46113;50.130;8.526;2024-03-08T08:45:09;20.33;;;11.15;;
27684;SDS011;46113;50.130;8.526;2024-03-08T08:47:43;19.02;;;10.85;;
27684;SDS011;46113;50.130;8.526;2024-03-08T08:50:12;19.08;;;9.95;;
27684;SDS011;46113;50.130;8.526;2024-03-08T08:52:39;19.83;;;9.80;;
27684;SDS011;46113;50.130;8.526;2024-03-08T08:55:07;20.70;;;10.43;;
27684;SDS011;46113;50.130;8.526;2024-03-08T08:57:34;20.08;;;10.43;;
27684;SDS011;46113;50.130;8.526;2024-03-08T09:00:02;18.88;;;9.30;;
27684;SDS011;46113;50.130;8.526;2024-03-08T09:02:34;18.58;;;10.57;;
27684;SDS011;46113;50.130;8.526;2024-03-08T09:05:01;18.25;;;9.15;;
27684;SDS011;46113;50.130;8.526;2024-03-08T09:07:29;21.98;;;11.00;;
27684;SDS011;46113;50.130;8.526;2024-03-08T09:09:56;16.95;;;10.30;;
27684;SDS011;46113;50.130;8.526;2024-03-08T09:12:25;17.15;;;9.00;;
27684;SDS011;46113;50.130;8.526;2024-03-08T09:14:52;19.10;;;10.20;;
27684;SDS011;46113;50.130;8.526;2024-03-08T09:17:19;17.60;;;9.10;;
27684;SDS011;46113;50.130;8.526;2024-03-08T09:19:47;14.13;;;8.35;;
27684;SDS011;46113;50.130;8.526;2024-03-08T09:22:14;21.00;;;10.73;;
27684;SDS011;46113;50.130;8.526;2024-03-08T09:24:41;15.75;;;8.43;;
27684;SDS011;46113;50.130;8.526;2024-03-08T09:27:09;20.10;;;9.38;;
27684;SDS011;46113;50.130;8.526;2024-03-08T09:29:36;16.65;;;9.90;;
27684;SDS011;46113;50.130;8.526;2024-03-08T09:32:03;15.80;;;8.02;;
27684;SDS011;46113;50.130;8.526;2024-03-08T09:34:31;16.35;;;9.82;;
27684;SDS011;46113;50.130;8.526;2024-03-08T09:37:03;18.05;;;9.38;;
27684;SDS011;46113;50.130;8.526;2024-03-08T09:39:31;18.95;;;10.38;;
27684;SDS011;46113;50.130;8.526;2024-03-08T09:42:00;12.80;;;7.95;;
27684;SDS011;46113;50.130;8.526;2024-03-08T09:44:28;15.88;;;8.27;;
27684;SDS011;46113;50.130;8.526;2024-03-08T09:46:55;15.18;;;8.48;;
27684;SDS011;46113;50.130;8.526;2024-03-08T09:49:25;15.20;;;8.35;;
27684;SDS011;46113;50.130;8.526;2024-03-08T09:51:52;15.48;;;9.43;;
27684;SDS011;46113;50.130;8.526;2024-03-08T09:54:19;14.93;;;9.05;;
27684;SDS011;46113;50.130;8.526;2024-03-08T09:56:50;16.63;;;9.07;;
27684;SDS011;46113;50.130;8.526;2024-03-08T09:59:18;19.50;;;9.77;;
27684;SDS011;46113;50.130;8.526;2024-03-08T10:01:54;14.25;;;9.50;;
27684;SDS011;46113;50.130;8.526;2024-03-08T10:04:23;14.35;;;8.88;;
27684;SDS011;46113;50.130;8.526;2024-03-08T10:06:52;17.05;;;8.38;;
27684;SDS011;46113;50.130;8.526;2024-03-08T10:09:19;15.15;;;9.07;;
27684;SDS011;46113;50.130;8.526;2024-03-08T10:11:47;14.88;;;8.82;;
27684;SDS011;46113;50.130;8.526;2024-03-08T10:14:15;16.83;;;9.13;;
27684;SDS011;46113;50.130;8.526;2024-03-08T10:16:44;18.15;;;9.85;;
27684;SDS011;46113;50.130;8.526;2024-03-08T10:19:13;19.08;;;9.20;;
27684;SDS011;46113;50.130;8.526;2024-03-08T10:21:47;15.52;;;8.57;;
27684;SDS011;46113;50.130;8.526;2024-03-08T10:24:20;16.17;;;8.55;;
27684;SDS011;46113;50.130;8.526;2024-03-08T10:26:47;14.60;;;9.45;;
27684;SDS011;46113;50.130;8.526;2024-03-08T10:29:14;18.88;;;9.60;;
27684;SDS011;46113;50.130;8.526;2024-03-08T10:31:44;17.52;;;8.88;;
27684;SDS011;46113;50.130;8.526;2024-03-08T10:34:11;13.35;;;7.68;;
27684;SDS011;46113;50.130;8.526;2024-03-08T10:36:39;15.05;;;7.88;;
27684;SDS011;46113;50.130;8.526;2024-03-08T10:39:21;14.70;;;7.70;;
27684;SDS011;46113;50.130;8.526;2024-03-08T10:41:52;17.42;;;7.90;;
27684;SDS011;46113;50.130;8.526;2024-03-08T10:49:44;14.45;;;8.85;;
27684;SDS011;46113;50.130;8.526;2024-03-08T10:52:17;13.45;;;7.25;;
27684;SDS011;46113;50.130;8.526;2024-03-08T10:54:46;20.67;;;8.32;;
27684;SDS011;46113;50.130;8.526;2024-03-08T10:57:17;15.68;;;8.63;;
27684;SDS011;46113;50.130;8.526;2024-03-08T10:59:48;12.25;;;7.53;;
27684;SDS011;46113;50.130;8.526;2024-03-08T11:02:17;11.57;;;7.20;;
27684;SDS011;46113;50.130;8.526;2024-03-08T11:04:51;11.75;;;7.75;;
27684;SDS011;46113;50.130;8.526;2024-03-08T11:07:21;16.15;;;8.05;;
27684;SDS011;46113;50.130;8.526;2024-03-08T11:09:48;13.60;;;7.43;;
27684;SDS011;46113;50.130;8.526;2024-03-08T11:14:53;12.73;;;6.95;;
27684;SDS011;46113;50.130;8.526;2024-03-08T11:17:25;15.75;;;7.78;;
27684;SDS011;46113;50.130;8.526;2024-03-08T11:20:12;13.77;;;8.27;;
27684;SDS011;46113;50.130;8.526;2024-03-08T11:22:54;18.08;;;8.55;;
27684;SDS011;46113;50.130;8.526;2024-03-08T11:28:20;16.95;;;8.45;;
27684;SDS011;46113;50.130;8.526;2024-03-08T11:33:34;18.75;;;7.85;;
27684;SDS011;46113;50.130;8.526;2024-03-08T11:38:44;13.85;;;8.32;;
27684;SDS011;46113;50.130;8.526;2024-03-08T11:41:11;15.63;;;8.65;;
27684;SDS011;46113;50.130;8.526;2024-03-08T11:43:44;14.57;;;8.70;;
27684;SDS011;46113;50.130;8.526;2024-03-08T11:46:13;16.08;;;8.68;;
27684;SDS011;46113;50.130;8.526;2024-03-08T11:48:42;15.88;;;8.05;;
27684;SDS011;46113;50.130;8.526;2024-03-08T11:51:11;11.68;;;6.95;;
27684;SDS011;46113;50.130;8.526;2024-03-08T11:53:39;14.30;;;8.25;;
27684;SDS011;46113;50.130;8.526;2024-03-08T11:56:10;11.15;;;7.07;;
27684;SDS011;46113;50.130;8.526;2024-03-08T11:58:39;14.70;;;8.40;;
27684;SDS011;46113;50.130;8.526;2024-03-08T12:01:07;14.82;;;8.73;;
27684;SDS011;46113;50.130;8.526;2024-03-08T12:03:43;17.95;;;8.68;;
27684;SDS011;46113;50.130;8.526;2024-03-08T12:06:10;16.75;;;8.70;;
27684;SDS011;46113;50.130;8.526;2024-03-08T12:08:39;14.50;;;8.18;;
27684;SDS011;46113;50.130;8.526;2024-03-08T12:11:06;14.60;;;8.73;;
27684;SDS011;46113;50.130;8.526;2024-03-08T12:13:37;15.45;;;9.25;;
27684;SDS011;46113;50.130;8.526;2024-03-08T12:16:04;16.73;;;9.05;;
27684;SDS011;46113;50.130;8.526;2024-03-08T12:18:37;17.17;;;9.77;;
27684;SDS011;46113;50.130;8.526;2024-03-08T12:21:08;17.25;;;9.93;;
27684;SDS011;46113;50.130;8.526;2024-03-08T12:23:38;14.98;;;8.40;;
27684;SDS011;46113;50.130;8.526;2024-03-08T12:26:18;10.40;;;7.40;;
27684;SDS011;46113;50.130;8.526;2024-03-08T12:28:53;15.18;;;8.57;;
27684;SDS011;46113;50.130;8.526;2024-03-08T12:31:41;16.77;;;8.30;;
27684;SDS011;46113;50.130;8.526;2024-03-08T12:34:09;15.35;;;8.50;;
27684;SDS011;46113;50.130;8.526;2024-03-08T12:36:36;15.68;;;9.35;;
27684;SDS011;46113;50.130;8.526;2024-03-08T12:39:03;17.42;;;9.73;;
27684;SDS011;46113;50.130;8.526;2024-03-08T12:41:30;14.73;;;8.80;;
27684;SDS011;46113;50.130;8.526;2024-03-08T12:43:57;14.05;;;8.35;;
27684;SDS011;46113;50.130;8.526;2024-03-08T12:46:24;15.45;;;9.25;;
27684;SDS011;46113;50.130;8.526;2024-03-08T12:48:53;15.85;;;9.35;;
27684;SDS011;46113;50.130;8.526;2024-03-08T12:51:20;12.77;;;7.97;;
27684;SDS011;46113;50.130;8.526;2024-03-08T12:53:49;18.63;;;9.98;;
27684;SDS011;46113;50.130;8.526;2024-03-08T12:56:29;17.73;;;8.77;;
27684;SDS011;46113;50.130;8.526;2024-03-08T12:58:59;15.40;;;8.85;;
27684;SDS011;46113;50.130;8.526;2024-03-08T13:01:27;14.57;;;9.23;;
27684;SDS011;46113;50.130;8.526;2024-03-08T13:03:54;17.30;;;9.80;;
27684;SDS011;46113;50.130;8.526;2024-03-08T13:06:22;15.73;;;8.65;;
27684;SDS011;46113;50.130;8.526;2024-03-08T13:08:51;17.00;;;9.55;;
27684;SDS011;46113;50.130;8.526;2024-03-08T13:11:22;16.25;;;9.93;;
27684;SDS011;46113;50.130;8.526;2024-03-08T13:13:53;14.32;;;8.30;;
27684;SDS011;46113;50.130;8.526;2024-03-08T13:16:20;14.13;;;7.75;;
27684;SDS011;46113;50.130;8.526;2024-03-08T13:18:50;15.50;;;8.95;;
27684;SDS011;46113;50.130;8.526;2024-03-08T13:21:20;18.27;;;10.10;;
27684;SDS011;46113;50.130;8.526;2024-03-08T13:23:50;15.65;;;8.50;;
27684;SDS011;46113;50.130;8.526;2024-03-08T13:26:19;18.35;;;9.43;;
27684;SDS011;46113;50.130;8.526;2024-03-08T13:28:47;13.88;;;8.48;;
27684;SDS011;46113;50.130;8.526;2024-03-08T13:31:20;18.80;;;10.48;;
27684;SDS011;46113;50.130;8.526;2024-03-08T13:33:48;16.60;;;8.60;;
27684;SDS011;46113;50.130;8.526;2024-03-08T13:36:14;14.55;;;8.68;;
27684;SDS011;46113;50.130;8.526;2024-03-08T13:38:43;13.40;;;8.73;;
27684;SDS011;46113;50.130;8.526;2024-03-08T13:41:10;16.08;;;8.77;;
27684;SDS011;46113;50.130;8.526;2024-03-08T13:43:38;16.10;;;8.15;;
27684;SDS011;46113;50.130;8.526;2024-03-08T13:46:06;19.85;;;8.57;;
27684;SDS011;46113;50.130;8.526;2024-03-08T13:48:34;16.52;;;8.50;;
27684;SDS011;46113;50.130;8.526;2024-03-08T13:51:00;12.82;;;7.97;;
27684;SDS011;46113;50.130;8.526;2024-03-08T13:53:27;14.38;;;7.35;;
27684;SDS011;46113;50.130;8.526;2024-03-08T13:55:54;14.05;;;7.47;;
27684;SDS011;46113;50.130;8.526;2024-03-08T13:58:24;11.30;;;6.50;;
27684;SDS011;46113;50.130;8.526;2024-03-08T14:00:51;14.20;;;7.43;;
27684;SDS011;46113;50.130;8.526;2024-03-08T14:03:18;14.85;;;7.10;;
27684;SDS011;46113;50.130;8.526;2024-03-08T14:05:45;13.45;;;6.95;;
27684;SDS011;46113;50.130;8.526;2024-03-08T14:08:13;17.95;;;7.78;;
27684;SDS011;46113;50.130;8.526;2024-03-08T14:10:40;15.05;;;7.13;;
27684;SDS011;46113;50.130;8.526;2024-03-08T14:13:09;9.70;;;6.80;;
27684;SDS011;46113;50.130;8.526;2024-03-08T14:15:38;15.45;;;8.38;;
27684;SDS011;46113;50.130;8.526;2024-03-08T14:18:08;13.48;;;7.72;;
27684;SDS011;46113;50.130;8.526;2024-03-08T14:20:37;14.55;;;8.25;;
27684;SDS011;46113;50.130;8.526;2024-03-08T14:23:04;11.07;;;7.57;;
27684;SDS011;46113;50.130;8.526;2024-03-08T14:25:37;15.02;;;8.80;;
27684;SDS011;46113;50.130;8.526;2024-03-08T14:28:04;13.20;;;8.13;;
27684;SDS011;46113;50.130;8.526;2024-03-08T14:30:33;15.32;;;8.38;;
27684;SDS011;46113;50.130;8.526;2024-03-08T14:33:02;14.27;;;8.00;;
27684;SDS011;46113;50.130;8.526;2024-03-08T14:35:29;12.82;;;7.75;;
27684;SDS011;46113;50.130;8.526;2024-03-08T14:37:56;14.20;;;7.40;;
27684;SDS011;46113;50.130;8.526;2024-03-08T14:40:24;10.90;;;6.82;;
27684;SDS011;46113;50.130;8.526;2024-03-08T14:42:52;12.00;;;7.03;;
27684;SDS011;46113;50.130;8.526;2024-03-08T14:45:19;14.23;;;8.20;;
27684;SDS011;46113;50.130;8.526;2024-03-08T14:47:46;12.10;;;6.43;;
27684;SDS011;46113;50.130;8.526;2024-03-08T14:50:17;11.50;;;6.80;;
27684;SDS011;46113;50.130;8.526;2024-03-08T14:52:45;13.02;;;6.78;;